Tuesday, January 15, 2019, 6:30 PM EST
Back to Local

KSWF, Newburgh / Stewart

Location: New Windsor, NY, United States Lat: 41.5
Local Time: 6:30 PM EST (23:30 GMT) Lon: -74.1
Time Zone: US/Eastern Elev: 492 ft

Show me the last for .
Show Decoded

2019-01-15 17:45 METAR KSWF 152245Z 00000KT 10SM SKC M03/M09 A3011 =
2019-01-15 16:45 METAR KSWF 152145Z VRBO4KT 10SM SKC M02/M08 A3010 =
2019-01-15 15:45 METAR KSWF 152045Z VRBO4KT 20SM SCT150 00/M08 A3010 =
2019-01-15 14:45 METAR KSWF 151945Z 00000KT 20SM SCT150 00/M08 A3011 =
2019-01-15 13:45 METAR KSWF 151845Z 00000KT 20SM SCT150 M01/M07 A3011 =
2019-01-15 12:45 METAR KSWF 151745Z 30005KT 20SM BKN150 M02/M08 A3013 =
2019-01-15 11:45 METAR KSWF 151645Z 00000KT 20SM BKN100 M03/M09 A3014 =
2019-01-15 10:45 METAR KSWF 151545Z 30004KT 20SM BKN100 M05/M08 A3018 =
2019-01-15 09:45 METAR KSWF 151445Z 00000KT 20SM BKN100 M06/M08 A3017 =
2019-01-15 08:45 METAR KSWF 151345Z 00000KT 20SM BKN120 M08/M10 A3015 =
2019-01-15 07:45 METAR KSWF 151245Z VRB04KT 20SM SCT120 M10/M11 A3014 =
2019-01-15 06:45 METAR KSWF 151145Z 00000KT 10SM SKC M11/M12 A3013 =
2019-01-15 05:45 METAR KSWF 151045Z 00000KT 10SM SKC M11/M11 A3011 =
2019-01-15 04:45 METAR KSWF 150945Z 00000KT 10SM SKC M11/M11 A3011 =
2019-01-15 03:45 METAR KSWF 150845Z 00000KT 10SM SKC M10/M11 A3010 =
2019-01-15 02:45 METAR KSWF 150745Z VRB05KT 10SM SKC M10/M11 A3012 =
2019-01-15 01:45 METAR KSWF 150645Z 29005KT 10SM SKC M10/M11 A3011 =
2019-01-15 00:45 METAR KSWF 150545Z 00000KT 10SM SKC M09/M10 A3011 =
2019-01-14 23:45 METAR KSWF 150445Z 00000KT 10SM SKC M08/M10 A3013 =
2019-01-14 22:45 METAR KSWF 150345Z 00000KT 10SM SKC M08/M10 A3014 =
2019-01-14 21:45 METAR KSWF 150245Z 00000KT 10SM SKC M08/M10 A3014 =
2019-01-14 20:45 METAR KSWF 150145Z 00000KT 10SM SKC M06/M10 A3014 =
2019-01-14 19:45 METAR KSWF 150045Z 00000KT 10SM SKC M06/M10 A3014 =
2019-01-14 18:45 METAR KSWF 142345Z 00000KT 10SM SKC M06/M09 A3016 =

Support USWX by starting your Amazon purchase here.